createdAt,value
2022-08-08T00:00:53.738Z,101933.56
2022-08-08T00:08:33.425Z,101934.38
2022-08-08T00:16:12.495Z,101942.44
2022-08-08T00:23:52.684Z,101933.34
2022-08-08T00:32:20.427Z,101936.84
2022-08-08T00:41:07.609Z,101939.44
2022-08-08T00:48:29.086Z,101939.31
2022-08-08T00:56:46.273Z,101942.72
2022-08-08T01:04:50.814Z,101948.06
2022-08-08T01:13:15.140Z,101949.72
2022-08-08T01:21:07.307Z,101942.47
2022-08-08T01:29:35.578Z,101940.56
2022-08-08T01:37:59.994Z,101941.38
2022-08-08T01:45:58.343Z,101932.31
2022-08-08T01:55:17.134Z,101927.66
2022-08-08T02:02:04.971Z,101922.25
2022-08-08T02:10:11.693Z,101912.22
2022-08-08T02:17:57.594Z,101923.78
2022-08-08T02:25:46.856Z,101928.03
2022-08-08T02:34:00.243Z,101933.28
2022-08-08T02:42:07.854Z,101934.13
2022-08-08T02:50:18.204Z,101939.44
2022-08-08T02:58:42.274Z,101933.06
2022-08-08T03:07:02.420Z,101940.94
2022-08-08T03:15:57.395Z,101944.44
2022-08-08T03:23:00.616Z,101939.88
2022-08-08T03:30:38.361Z,101948.75
2022-08-08T03:38:57.942Z,101945.91
2022-08-08T03:46:09.701Z,101946.63
2022-08-08T03:53:47.739Z,101952.94
2022-08-08T04:01:24.515Z,101961.94
2022-08-08T04:09:10.595Z,101968.09
2022-08-08T04:16:49.184Z,101972.53
2022-08-08T04:24:29.642Z,101974.22
2022-08-08T04:32:06.826Z,101976.03
2022-08-08T04:40:05.418Z,101989.56
2022-08-08T04:47:46.121Z,101991.53
2022-08-08T04:55:22.129Z,102002.47
2022-08-08T05:02:56.828Z,102002.63
2022-08-08T05:10:32.951Z,102001.94
2022-08-08T05:18:07.105Z,101996.66
2022-08-08T05:25:43.234Z,102004.91
2022-08-08T05:33:17.837Z,102007.91
2022-08-08T05:40:58.174Z,102006.44
2022-08-08T05:48:34.633Z,102009.81
2022-08-08T05:56:15.218Z,102018.22
2022-08-08T06:03:53.673Z,102015.06
2022-08-08T06:11:33.212Z,102012.72
2022-08-08T06:19:16.197Z,102023.75
2022-08-08T06:26:58.963Z,102029.38
2022-08-08T06:34:40.273Z,102030.44
2022-08-08T06:42:16.474Z,102030.66
2022-08-08T06:49:56.667Z,102035.38
2022-08-08T06:57:54.722Z,102029.22
2022-08-08T07:05:29.857Z,102043.88
2022-08-08T07:13:18.725Z,102034.06
2022-08-08T07:20:56.004Z,102033.25
2022-08-08T07:28:34.283Z,102035.09
2022-08-08T07:36:10.499Z,102042.34
2022-08-08T07:43:53.496Z,102043.28
2022-08-08T07:51:53.258Z,102045.88
2022-08-08T07:59:27.942Z,102045.31
2022-08-08T08:07:12.545Z,102042.47
2022-08-08T08:14:55.739Z,102045.97
2022-08-08T08:22:31.336Z,102049.25
2022-08-08T08:30:10.369Z,102048.69
2022-08-08T08:38:13.000Z,102055.13
2022-08-08T08:45:40.679Z,102063.13
2022-08-08T08:53:54.991Z,102055.88
2022-08-08T09:01:14.934Z,102048.66
2022-08-08T09:08:55.186Z,102053.75
2022-08-08T09:16:32.842Z,102048.41
2022-08-08T09:24:07.313Z,102050.97
2022-08-08T09:31:56.035Z,102037.72
2022-08-08T09:39:36.775Z,102028.28
2022-08-08T09:47:26.501Z,102039.88
2022-08-08T09:55:09.470Z,102022.69
2022-08-08T10:02:54.145Z,102022.16
2022-08-08T10:10:30.302Z,102016.50
2022-08-08T10:18:13.096Z,102024.81
2022-08-08T10:25:57.201Z,102036.81
2022-08-08T10:33:38.593Z,102027.41
2022-08-08T10:41:35.419Z,102028.38
2022-08-08T10:50:02.278Z,102020.03
2022-08-08T10:57:27.558Z,102014.75
2022-08-08T11:05:18.116Z,102017.19
2022-08-08T11:13:18.703Z,102008.09
2022-08-08T11:20:52.228Z,102001.25
2022-08-08T11:28:29.569Z,101998.38
2022-08-08T11:36:07.059Z,101995.34
2022-08-08T11:43:43.529Z,102001.88
2022-08-08T11:51:37.959Z,101998.84
2022-08-08T11:59:14.381Z,101994.66
2022-08-08T12:06:49.658Z,101995.72
2022-08-08T12:14:24.122Z,101988.41
2022-08-08T12:22:13.504Z,101981.50
2022-08-08T12:30:02.053Z,101977.88
2022-08-08T12:37:40.802Z,101971.00
2022-08-08T12:45:58.543Z,101971.09
2022-08-08T12:53:24.685Z,101962.72
2022-08-08T13:01:11.055Z,101961.53
2022-08-08T13:08:53.155Z,101959.53
2022-08-08T13:16:30.005Z,101949.44
2022-08-08T13:24:07.925Z,101944.03
2022-08-08T13:31:53.401Z,101946.22
2022-08-08T13:39:28.651Z,101956.34
2022-08-08T13:47:05.016Z,101957.69
2022-08-08T13:54:49.434Z,101953.59
2022-08-08T14:02:30.955Z,101945.69
2022-08-08T14:10:11.773Z,101943.38
2022-08-08T14:17:58.489Z,101949.84
2022-08-08T14:25:46.735Z,101938.97
2022-08-08T14:33:36.578Z,101931.50
2022-08-08T14:41:17.718Z,101940.84
2022-08-08T14:49:31.881Z,101930.03
2022-08-08T14:57:08.858Z,101929.59
2022-08-08T15:04:45.593Z,101936.13
2022-08-08T15:12:36.572Z,101931.91
2022-08-08T15:20:14.162Z,101937.25
2022-08-08T15:28:05.184Z,101941.59
2022-08-08T15:35:43.395Z,101935.75
2022-08-08T15:43:35.728Z,101938.94
2022-08-08T15:51:11.646Z,101927.47
2022-08-08T15:58:50.704Z,101931.34
2022-08-08T16:06:28.774Z,101938.28
2022-08-08T16:14:11.388Z,101939.84
2022-08-08T16:21:54.076Z,101936.28
2022-08-08T16:29:37.352Z,101942.47
2022-08-08T16:37:27.859Z,101933.00
2022-08-08T16:45:11.461Z,101926.09
2022-08-08T16:55:05.812Z,101936.41
2022-08-08T17:00:52.941Z,101940.66
2022-08-08T17:08:27.171Z,101935.50
2022-08-08T17:16:02.356Z,101943.22
2022-08-08T17:24:01.437Z,101949.88
2022-08-08T17:31:45.142Z,101960.31
2022-08-08T17:39:46.056Z,101953.16
2022-08-08T17:47:23.172Z,101962.41
2022-08-08T17:54:58.654Z,101971.69
2022-08-08T18:02:33.974Z,101963.63
2022-08-08T18:10:10.218Z,101976.69
2022-08-08T18:18:08.951Z,101983.56
2022-08-08T18:25:39.684Z,101987.63
2022-08-08T18:33:36.620Z,101997.09
2022-08-08T18:41:10.143Z,102009.31
2022-08-08T18:48:45.508Z,102023.41
2022-08-08T18:56:22.992Z,102030.13
2022-08-08T19:04:09.908Z,102053.41
2022-08-08T19:11:46.243Z,102058.63
2022-08-08T19:19:22.134Z,102067.88
2022-08-08T19:26:57.889Z,102076.19
2022-08-08T19:34:38.767Z,102075.50
2022-08-08T19:42:15.467Z,102075.72
2022-08-08T19:49:59.734Z,102088.56
2022-08-08T19:57:35.510Z,102086.91
2022-08-08T20:05:12.113Z,102087.06
2022-08-08T20:12:59.140Z,102108.09
2022-08-08T20:20:42.490Z,102115.53
2022-08-08T20:28:17.486Z,102123.88
2022-08-08T20:35:58.585Z,102124.88
2022-08-08T20:43:43.629Z,102127.81
2022-08-08T20:51:23.640Z,102128.13
2022-08-08T20:58:58.989Z,102128.25
2022-08-08T21:06:52.714Z,102123.72
2022-08-08T21:14:33.499Z,102127.38
2022-08-08T21:22:09.658Z,102130.22
2022-08-08T21:30:03.698Z,102142.94
2022-08-08T21:37:54.329Z,102143.97
2022-08-08T21:47:59.658Z,102145.81
2022-08-08T21:54:32.000Z,102148.56
2022-08-08T22:01:22.446Z,102153.19
2022-08-08T22:09:08.409Z,102154.16
2022-08-08T22:16:42.732Z,102155.06
2022-08-08T22:24:18.016Z,102154.19
2022-08-08T22:32:03.513Z,102146.97
2022-08-08T22:39:45.560Z,102164.25
2022-08-08T22:47:36.538Z,102167.88
2022-08-08T22:55:14.316Z,102174.22
2022-08-08T23:02:51.247Z,102169.72
2022-08-08T23:10:27.645Z,102164.31
2022-08-08T23:18:01.490Z,102167.03
2022-08-08T23:25:48.290Z,102174.28
2022-08-08T23:34:15.976Z,102172.44
2022-08-08T23:41:24.570Z,102167.97
2022-08-08T23:49:18.102Z,102168.91
2022-08-08T23:56:54.249Z,102161.69
